Newton Lower Falls, Massachusetts
Current Conditions -  °F | °C
As of 2:56 PM on Sunday 25 Jan 2015 (Local Time) from KBED Reporting Station
Clear Clear  
Wind Chill: 24°   Ceiling: Unl
Heat Index: 33°   Visibility: 10mi
Dew Point:   Wind: 13mph
Humidity: 34%   Direction: 280°W
Pressure: 29.69"   Gusts: 22mph
Location:  42.33°N, 71.26°W
Report Text: KBED 251956Z 28011G19KT 10SM CLR 01/M14 A2969 RMK AO2 SLP070 T00061139
Loading
Personal Weather Stations






























Interactive Weather Map New forecast layout! Learn more

10-Day Weather Forecast

Advertisements
Track Severe Weather on mobile